Data for 06/15/2005

Time Sea-Level Adjusted Pressure Absolute Pressure Temperature Relative Humidity Dew Point   
(mb) (inHg) (mb) (inHg) (C) (F) (%) (C) (F)
00:05 1013 29.91 842 24.86 20.5 68.8 33 3.8 38.8
00:10 1013 29.91 842 24.86 20.6 69 31 3.1 37.6
00:15 1013 29.91 842 24.86 20.7 69.3 32 3.5 38.3
00:20 1013 29.91 842 24.86 20.8 69.4 32 3.7 38.7
00:25 1013 29.91 842 24.86 20.3 68.6 35 4.6 40.3
00:30 1013 29.91 842 24.86 19.6 67.4 37 4.6 40.2
00:35 1013 29.91 842 24.86 19.4 66.9 38 4.8 40.7
00:40 1013 29.91 842 24.86 19.2 66.6 39 5.1 41.2
00:45 1013 29.91 842 24.86 18.9 66 39 4.9 40.8
00:50 1013 29.91 842 24.86 18.7 65.6 41 5.3 41.5
00:55 1013 29.91 842 24.86 18.3 65 43 5.8 42.5
01:00 1013 29.91 842 24.86 17.9 64.2 45 6 42.7
01:05 1013 29.91 842 24.86 17.8 64 45 5.9 42.7
01:10 1013 29.91 842 24.86 17.7 63.9 46 6 42.7
01:15 1013 29.91 842 24.86 17.7 63.9 45 5.8 42.5
01:20 1013 29.91 842 24.86 17.8 64.1 45 5.9 42.7
01:25 1013 29.91 842 24.86 17.8 64 44 5.6 42
01:30 1013 29.91 842 24.86 17.8 64.1 45 5.8 42.4
01:35 1013 29.91 843 24.89 17.5 63.5 49 6.9 44.4
01:40 1013 29.91 843 24.89 16.8 62.3 50 6.5 43.7
01:45 1013 29.91 843 24.89 17 62.6 47 5.6 42.2
01:50 1014 29.94 843 24.89 17.4 63.3 47 6 42.8
01:55 1014 29.94 843 24.89 16.9 62.5 51 6.8 44.2
02:00 1014 29.94 843 24.89 16.4 61.4 51 6.3 43.3
02:05 1014 29.94 843 24.89 16.6 61.9 49 6 42.8
02:10 1014 29.94 843 24.89 16.8 62.3 48 5.9 42.7
02:15 1014 29.94 843 24.89 17.1 62.7 46 5.5 41.9
02:20 1014 29.94 843 24.89 17.3 63.1 46 5.7 42.2
02:25 1014 29.94 843 24.89 17.2 63 47 5.8 42.5
02:30 1014 29.94 843 24.89 17.2 62.9 47 5.8 42.5
02:35 1014 29.94 843 24.89 17.1 62.7 47 5.8 42.5
02:40 1014 29.94 843 24.89 16.7 62.1 49 6.2 43.1
02:45 1014 29.94 843 24.89 16.4 61.6 51 6.4 43.5
02:50 1014 29.94 843 24.89 16.1 61.1 52 6.3 43.4
02:55 1014 29.94 843 24.89 16.1 61.1 51 6.2 43.2
03:00 1014 29.94 843 24.89 16.3 61.3 51 6.3 43.4
03:05 1014 29.94 843 24.89 16.2 61.1 53 6.7 44
03:10 1014 29.94 843 24.89 15.9 60.6 55 7 44.6
03:15 1013 29.91 843 24.89 15.7 60.2 57 7.3 45.2
03:20 1013 29.91 843 24.89 15.5 59.9 57 7.2 45
03:25 1013 29.91 843 24.89 15.4 59.8 58 7.3 45.1
03:30 1013 29.91 843 24.89 15.4 59.7 58 7.3 45.1
03:35 1013 29.91 843 24.89 15.4 59.8 57 7.1 44.8
03:40 1013 29.91 843 24.89 15.3 59.6 61 7.9 46.2
03:45 1013 29.91 842 24.86 14.2 57.5 64 7.6 45.7
03:50 1013 29.91 842 24.86 14.2 57.6 63 7.3 45.2
03:55 1013 29.91 842 24.86 14.2 57.6 63 7.4 45.3
04:00 1013 29.91 843 24.89 14.2 57.6 62 7.2 45
04:05 1013 29.91 843 24.89 14.4 57.9 63 7.6 45.7
04:10 1013 29.91 842 24.86 14.4 57.9 61 7.1 44.8
04:15 1013 29.91 842 24.86 14.4 58 61 7.1 44.9
04:20 1013 29.91 842 24.86 14.3 57.7 61 6.8 44.3
04:25 1014 29.94 843 24.89 14.1 57.3 62 6.9 44.4
04:30 1014 29.94 843 24.89 13.6 56.5 64 7 44.6
04:35 1014 29.94 843 24.89 13.3 56 64 6.7 44
04:40 1014 29.94 843 24.89 13.5 56.2 65 7 44.6
04:45 1014 29.94 843 24.89 13.4 56.2 65 6.9 44.5
04:50 1014 29.94 843 24.89 13.3 55.9 66 7.1 44.7
04:55 1014 29.94 843 24.89 13 55.3 67 7 44.6
05:00 1013 29.91 843 24.89 12.5 54.6 68 6.8 44.3
05:05 1014 29.94 843 24.89 12.4 54.3 69 6.9 44.5
05:10 1014 29.94 843 24.89 12.2 53.9 69 6.8 44.3
05:15 1014 29.94 843 24.89 12.1 53.8 70 6.8 44.2
05:20 1014 29.94 843 24.89 12.3 54.2 67 6.5 43.6
05:25 1014 29.94 843 24.89 12.7 54.8 69 7.1 44.8
05:30 1014 29.94 843 24.89 12.8 55.1 68 7.1 44.8
05:35 1014 29.94 843 24.89 13 55.3 65 6.7 44
05:40 1014 29.94 843 24.89 12.9 55.3 67 7 44.5
05:45 1014 29.94 843 24.89 12.7 54.9 66 6.7 44
05:50 1014 29.94 843 24.89 12.8 55.1 67 6.8 44.2
05:55 1014 29.94 843 24.89 13 55.4 67 7.1 44.7
06:00 1014 29.94 843 24.89 13 55.4 67 7.1 44.8
06:05 1014 29.94 843 24.89 12.9 55.2 69 7.3 45.2
06:10 1014 29.94 843 24.89 12.7 54.9 70 7.5 45.5
06:15 1014 29.94 843 24.89 12.7 54.9 71 7.6 45.7
06:20 1014 29.94 843 24.89 12.8 55.1 72 7.9 46.1
06:25 1014 29.94 843 24.89 13.2 55.7 71 8.1 46.6
06:30 1014 29.94 844 24.92 13.3 55.9 72 8.4 47
06:35 1014 29.94 844 24.92 13.1 55.5 74 8.5 47.4
06:40 1014 29.94 844 24.92 12.4 54.3 77 8.5 47.3
06:45 1014 29.94 844 24.92 11.9 53.4 78 8.2 46.7
06:50 1015 29.97 844 24.92 11.8 53.2 78 8 46.4
06:55 1015 29.97 844 24.92 12.1 53.7 75 7.9 46.2
07:00 1015 29.97 844 24.92 12.6 54.8 73 8 46.5
07:05 1015 29.97 844 24.92 12.8 55.1 73 8.1 46.6
07:10 1015 29.97 845 24.95 12.7 54.8 74 8.3 46.9
07:15 1015 29.97 844 24.92 12.6 54.7 74 8.2 46.8
07:20 1014 29.94 844 24.92 12.8 55 74 8.3 46.9
07:25 1014 29.94 843 24.89 13.1 55.5 72 8.2 46.8
07:30 1015 29.97 844 24.92 13.1 55.7 74 8.7 47.6
07:35 1014 29.94 844 24.92 13.6 56.5 70 8.2 46.8
07:40 1015 29.97 844 24.92 13.8 56.9 68 8.1 46.7
07:45 1015 29.97 844 24.92 14.4 57.9 65 7.9 46.2
07:50 1015 29.97 844 24.92 14.9 58.9 65 8.4 47.1
07:55 1015 29.97 844 24.92 14.6 58.2 67 8.6 47.5
08:00 1015 29.97 844 24.92 14.3 57.8 68 8.5 47.2
08:05 1015 29.97 844 24.92 14 57.3 70 8.7 47.7
08:10 1015 29.97 844 24.92 14.1 57.3 72 9.1 48.4
08:15 1015 29.97 844 24.92 14.7 58.5 68 8.9 48
08:20 1015 29.97 844 24.92 15.1 59.1 66 8.9 48
08:25 1015 29.97 844 24.92 15.1 59.2 68 9.2 48.6
08:30 1015 29.97 844 24.92 15.3 59.5 68 9.4 48.9
08:35 1015 29.97 844 24.92 15.5 59.9 68 9.8 49.6
08:40 1015 29.97 844 24.92 15.4 59.7 67 9.3 48.7
08:45 1015 29.97 845 24.95 15.2 59.3 68 9.3 48.7
08:50 1015 29.97 844 24.92 14.6 58.4 70 9.3 48.8
08:55 1015 29.97 844 24.92 15.1 59.2 67 9.1 48.3
09:00 1015 29.97 844 24.92 15.3 59.6 67 9.3 48.7
09:05 1015 29.97 844 24.92 15.5 59.9 66 9.3 48.8
09:10 1015 29.97 844 24.92 15.6 60.1 66 9.3 48.7
09:15 1015 29.97 845 24.95 15.6 60 66 9.3 48.8
09:20 1015 29.97 845 24.95 15.3 59.6 69 9.6 49.3
09:25 1015 29.97 845 24.95 15.1 59.1 70 9.7 49.5
09:30 1015 29.97 845 24.95 15.2 59.3 68 9.5 49
09:35 1016 30 845 24.95 15.2 59.4 68 9.4 49
09:40 1015 29.97 845 24.95 15.1 59.2 68 9.4 48.9
09:45 1015 29.97 845 24.95 15.4 59.8 66 9.2 48.5
09:50 1015 29.97 845 24.95 15.8 60.4 66 9.5 49.1
09:55 1015 29.97 845 24.95 16.4 61.5 63 9.5 49.1
10:00 1016 30 845 24.95 16.5 61.7 64 9.8 49.6
10:05 1016 30 845 24.95 15.7 60.2 68 9.9 49.8
10:10 1016 30 845 24.95 15.2 59.3 68 9.3 48.7
10:15 1015 29.97 845 24.95 15.9 60.7 64 9.2 48.5
10:20 1015 29.97 845 24.95 17.2 63 62 10 50.1
10:25 1015 29.97 845 24.95 17.3 63.2 61 9.9 49.8
10:30 1015 29.97 845 24.95 16.6 61.8 62 9.4 48.9
10:35 1015 29.97 845 24.95 17.4 63.3 57 9 48.1
10:40 1015 29.97 844 24.92 17.9 64.3 58 9.6 49.4
10:45 1015 29.97 844 24.92 17.6 63.8 60 9.8 49.7
10:50 1015 29.97 845 24.95 17.6 63.7 59 9.7 49.4
10:55 1015 29.97 845 24.95 17.9 64.2 60 10.2 50.4
11:00 1015 29.97 845 24.95 17.8 64 60 10.1 50.2
11:05 1015 29.97 845 24.95 17.4 63.4 61 9.8 49.6
11:10 1015 29.97 845 24.95 17.6 63.6 59 9.5 49.1
11:15 1015 29.97 844 24.92 17.6 63.7 58 9.4 49
11:20 1015 29.97 844 24.92 17.9 64.2 57 9.4 49
11:25 1015 29.97 844 24.92 18.3 64.9 55 9.2 48.5
11:30 1015 29.97 844 24.92 18.9 66 53 9.3 48.8
11:35 1015 29.97 845 24.95 18.7 65.6 56 9.9 49.9
11:40 1015 29.97 845 24.95 17.9 64.3 56 9.2 48.6
11:45 1015 29.97 845 24.95 18.6 65.4 54 9.2 48.5
11:50 1015 29.97 845 24.95 18.5 65.4 55 9.6 49.2
11:55 1015 29.97 844 24.92 18.7 65.7 54 9.4 48.8
12:00 1015 29.97 845 24.95 19.1 66.4 53 9.4 48.9
12:05 1015 29.97 845 24.95 19.4 67 53 9.8 49.7
12:10 1015 29.97 845 24.95 19.3 66.8 54 10 50
12:15 1015 29.97 845 24.95 19.6 67.4 52 9.7 49.5
12:20 1015 29.97 845 24.95 19.3 66.7 55 10 50
12:25 1015 29.97 845 24.95 19.3 66.7 55 10 50.1
12:30 1015 29.97 845 24.95 19.3 66.7 53 9.5 49.1
12:35 1015 29.97 844 24.92 19.1 66.5 55 9.9 49.8
12:40 1015 29.97 844 24.92 18.9 65.9 54 9.6 49.3
12:45 1015 29.97 844 24.92 19.3 66.7 53 9.5 49.2
12:50 1015 29.97 844 24.92 19.2 66.5 54 9.7 49.5
12:55 1015 29.97 844 24.92 19.7 67.5 51 9.3 48.7
13:00 1015 29.97 844 24.92 20.6 69.1 49 9.7 49.5
13:05 1015 29.97 844 24.92 21.2 70.2 46 9.3 48.8
13:10 1015 29.97 844 24.92 21 69.7 46 9.2 48.5
13:15 1015 29.97 844 24.92 20 67.9 51 9.7 49.4
13:20 1015 29.97 844 24.92 19.8 67.6 49 8.8 47.9
13:25 1015 29.97 844 24.92 20.9 69.5 47 9.4 48.9
13:30 1015 29.97 844 24.92 21.6 71 47 10.1 50.2
13:35 1015 29.97 844 24.92 21.8 71.2 47 10.1 50.2
13:40 1015 29.97 844 24.92 21.8 71.3 46 10 49.9
13:45 1015 29.97 844 24.92 21.6 70.9 47 10.1 50.1
13:50 1015 29.97 844 24.92 21.8 71.3 47 10.2 50.3
13:55 1015 29.97 844 24.92 21.8 71.2 47 10.1 50.2
14:00 1015 29.97 844 24.92 22.2 72 38 7.4 45.4
14:05 1015 29.97 844 24.92 22.2 71.9 39 8 46.3
14:10 1015 29.97 844 24.92 23.1 73.5 34 6.7 44
14:15 1015 29.97 844 24.92 23 73.4 37 7.8 46
14:20 1015 29.97 844 24.92 22 71.6 41 8.5 47.3
14:25 1015 29.97 844 24.92 22.9 73.1 38 8.1 46.6
14:30 1015 29.97 844 24.92 23.1 73.6 35 7.2 45
14:35 1015 29.97 844 24.92 22.5 72.4 36 6.9 44.5
14:40 1015 29.97 844 24.92 22.4 72.2 38 7.5 45.5
14:45 1015 29.97 844 24.92 22.7 72.9 40 8.7 47.7
14:50 1015 29.97 844 24.92 23.1 73.6 37 7.8 46.1
14:55 1015 29.97 844 24.92 22.3 72.2 40 8.3 46.9
15:00 1014 29.94 844 24.92 23.1 73.6 38 8.1 46.6
15:05 1014 29.94 844 24.92 23 73.5 40 9 48.3
15:10 1014 29.94 844 24.92 23 73.5 38 8.1 46.6
15:15 1014 29.94 844 24.92 24.3 75.8 35 8.2 46.7
15:20 1014 29.94 844 24.92 24.5 76.1 35 8.4 47.1
15:25 1014 29.94 844 24.92 24.4 75.9 35 8.3 46.9
15:30 1014 29.94 844 24.92 24.2 75.6 36 8.3 47
15:35 1014 29.94 844 24.92 24 75.2 39 9.3 48.8
15:40 1014 29.94 843 24.89 23.9 74.9 38 9.1 48.3
15:45 1014 29.94 843 24.89 23.2 73.7 42 9.8 49.7
15:50 1014 29.94 844 24.92 23 73.4 42 9.6 49.3
15:55 1014 29.94 844 24.92 23.4 74.2 38 8.4 47.2
16:00 1014 29.94 844 24.92 23.9 74.9 37 8.6 47.5
16:05 1014 29.94 844 24.92 24.2 75.5 39 9.5 49
16:10 1015 29.97 844 24.92 23.5 74.3 41 9.7 49.4
16:15 1015 29.97 844 24.92 23.1 73.6 44 10.2 50.4
16:20 1015 29.97 844 24.92 22.9 73.1 44 10.3 50.5
16:25 1015 29.97 844 24.92 22.6 72.7 42 9.3 48.7
16:30 1015 29.97 844 24.92 22.1 71.7 44 9.5 49
16:35 1015 29.97 844 24.92 21.9 71.4 45 9.7 49.5
16:40 1015 29.97 844 24.92 22.1 71.7 45 9.7 49.4
16:45 1015 29.97 844 24.92 22.1 71.8 45 9.7 49.5
16:50 1015 29.97 844 24.92 22 71.6 45 9.7 49.4
16:55 1015 29.97 844 24.92 21.9 71.5 42 8.8 47.8
17:00 1014 29.94 844 24.92 21.3 70.4 45 8.9 48.1
17:05 1015 29.97 844 24.92 21.5 70.7 42 8.3 46.9
17:10 1015 29.97 844 24.92 21.9 71.5 40 7.8 46
17:15 1015 29.97 844 24.92 22.2 72 38 7.5 45.6
17:20 1015 29.97 844 24.92 22.3 72.2 35 6.5 43.7
17:25 1015 29.97 844 24.92 22.3 72.1 46 10.2 50.4
17:30 1014 29.94 844 24.92 22.1 71.7 48 10.6 51
17:35 1014 29.94 844 24.92 21.2 70.1 49 10.3 50.6
17:40 1014 29.94 843 24.89 21 69.8 47 9.5 49
17:45 1014 29.94 843 24.89 21 69.7 48 9.7 49.5
17:50 1014 29.94 843 24.89 21.1 70 49 10 50
17:55 1014 29.94 843 24.89 20.8 69.4 50 10.3 50.5
18:00 1014 29.94 843 24.89 20.8 69.4 50 10.2 50.4
18:05 1014 29.94 843 24.89 20.7 69.3 52 10.6 51.1
18:10 1014 29.94 843 24.89 20.7 69.2 50 10.1 50.3
18:15 1014 29.94 843 24.89 21 69.9 47 9.3 48.8
18:20 1014 29.94 843 24.89 21.7 71.1 44 9.1 48.4
18:25 1014 29.94 843 24.89 22.3 72.2 41 8.7 47.6
18:30 1014 29.94 843 24.89 22.5 72.5 39 8.1 46.6
18:35 1014 29.94 843 24.89 22.4 72.2 39 8 46.3
18:40 1014 29.94 843 24.89 23 73.3 38 8.1 46.6
18:45 1014 29.94 843 24.89 23 73.3 38 8 46.4
18:50 1014 29.94 843 24.89 22.8 73.1 37 7.7 45.9
18:55 1014 29.94 843 24.89 22.5 72.4 40 8.2 46.8
19:00 1014 29.94 843 24.89 22.6 72.7 39 8.3 47
19:05 1014 29.94 843 24.89 22.5 72.5 40 8.6 47.5
19:10 1014 29.94 843 24.89 22.4 72.3 39 7.8 46.1
19:15 1014 29.94 843 24.89 22.5 72.6 38 7.8 46
19:20 1014 29.94 843 24.89 22.6 72.6 40 8.3 47
19:25 1014 29.94 843 24.89 22.4 72.3 42 9.1 48.4
19:30 1014 29.94 843 24.89 22 71.7 43 9 48.2
19:35 1014 29.94 843 24.89 21.6 70.8 52 11.6 52.8
19:40 1014 29.94 843 24.89 21.1 70 54 11.5 52.7
19:45 1014 29.94 843 24.89 20.8 69.5 55 11.7 53
19:50 1014 29.94 843 24.89 20.8 69.4 56 11.7 53
19:55 1014 29.94 843 24.89 20.7 69.3 55 11.6 52.8
20:00 1014 29.94 843 24.89 20.6 69.1 56 11.6 53
20:05 1014 29.94 843 24.89 20.5 69 56 11.7 53
20:10 1014 29.94 843 24.89 20.3 68.6 57 11.7 53
20:15 1014 29.94 843 24.89 20.1 68.2 58 11.7 53.1
20:20 1014 29.94 843 24.89 20 68 59 11.8 53.3
20:25 1014 29.94 843 24.89 19.8 67.7 60 11.8 53.3
20:30 1014 29.94 843 24.89 19.7 67.4 61 12 53.6
20:35 1014 29.94 843 24.89 19.5 67.1 61 12 53.6
20:40 1014 29.94 844 24.92 19.4 66.9 62 12.1 53.7
20:45 1014 29.94 844 24.92 19.1 66.4 63 12.1 53.8
20:50 1014 29.94 844 24.92 19 66.1 64 12 53.7
20:55 1014 29.94 844 24.92 18.8 65.8 65 12.1 53.7
21:00 1014 29.94 844 24.92 18.7 65.6 65 12 53.7
21:05 1014 29.94 844 24.92 18.5 65.3 66 12.1 53.7
21:10 1014 29.94 844 24.92 18.3 64.9 66 12 53.6
21:15 1014 29.94 844 24.92 18.2 64.7 67 12 53.5
21:20 1014 29.94 844 24.92 18 64.5 67 11.9 53.4
21:25 1015 29.97 844 24.92 18 64.3 68 12 53.5
21:30 1015 29.97 844 24.92 17.8 64.1 68 11.8 53.2
21:35 1015 29.97 844 24.92 17.7 63.9 68 11.9 53.4
21:40 1015 29.97 844 24.92 17.6 63.6 69 11.8 53.2
21:45 1015 29.97 844 24.92 17.4 63.4 69 11.8 53.2
21:50 1015 29.97 844 24.92 17.3 63.2 69 11.7 53.1
21:55 1015 29.97 844 24.92 17.2 62.9 70 11.7 53.1
22:00 1015 29.97 844 24.92 17.1 62.8 70 11.6 52.9
22:05 1015 29.97 844 24.92 17.1 62.7 70 11.6 52.9
22:10 1015 29.97 844 24.92 17 62.5 71 11.7 53
22:15 1015 29.97 844 24.92 16.9 62.4 70 11.5 52.8
22:20 1015 29.97 844 24.92 16.8 62.2 71 11.5 52.7
22:25 1015 29.97 844 24.92 16.8 62.2 70 11.4 52.6
22:30 1015 29.97 844 24.92 16.7 62 71 11.5 52.7
22:35 1015 29.97 844 24.92 16.5 61.6 72 11.5 52.6
22:40 1015 29.97 844 24.92 16.4 61.4 72 11.4 52.5
22:45 1015 29.97 844 24.92 16.2 61.2 73 11.3 52.4
22:50 1015 29.97 844 24.92 16.2 61.1 73 11.4 52.5
22:55 1015 29.97 844 24.92 16.1 61 73 11.3 52.3
23:00 1015 29.97 844 24.92 16.1 60.9 73 11.3 52.3
23:05 1015 29.97 844 24.92 15.9 60.6 73 11.2 52.1
23:10 1015 29.97 844 24.92 15.9 60.6 73 11.2 52.2
23:15 1015 29.97 844 24.92 15.9 60.5 73 11.1 52
23:20 1015 29.97 844 24.92 15.9 60.6 73 11.1 51.9
23:25 1015 29.97 844 24.92 15.9 60.7 73 11.1 52
23:30 1015 29.97 844 24.92 16 60.8 72 11 51.8
23:35 1015 29.97 845 24.95 16 60.7 72 11 51.8
23:40 1015 29.97 844 24.92 16.1 60.9 71 10.9 51.6
23:45 1015 29.97 845 24.95 16.1 61.1 71 10.9 51.6
23:50 1015 29.97 845 24.95 16.1 61 71 11 51.8
23:55 1015 29.97 845 24.95 16.1 60.9 71 10.9 51.6
24:00 1016 30 845 24.95 16.1 61 71 11 51.7